sensor_id;sensor_type;location;lat;lon;timestamp;P1;durP1;ratioP1;P2;durP2;ratioP2
39882;SDS011;55824;52.220;21.040;2022-09-09T00:09:45;5.63;;;3.35;;
39882;SDS011;55824;52.220;21.040;2022-09-09T00:12:57;5.75;;;3.13;;
39882;SDS011;55824;52.220;21.040;2022-09-09T00:15:07;6.70;;;3.60;;
39882;SDS011;55824;52.220;21.040;2022-09-09T00:20:12;7.18;;;3.05;;
39882;SDS011;55824;52.220;21.040;2022-09-09T00:22:40;5.60;;;3.30;;
39882;SDS011;55824;52.220;21.040;2022-09-09T00:25:14;7.28;;;3.60;;
39882;SDS011;55824;52.220;21.040;2022-09-09T00:32:36;6.30;;;3.28;;
39882;SDS011;55824;52.220;21.040;2022-09-09T00:35:04;6.68;;;3.63;;
39882;SDS011;55824;52.220;21.040;2022-09-09T00:37:37;7.97;;;3.60;;
39882;SDS011;55824;52.220;21.040;2022-09-09T00:40:11;6.00;;;3.30;;
39882;SDS011;55824;52.220;21.040;2022-09-09T00:42:42;6.38;;;3.58;;
39882;SDS011;55824;52.220;21.040;2022-09-09T00:48:07;5.38;;;3.10;;
39882;SDS011;55824;52.220;21.040;2022-09-09T00:53:18;5.15;;;3.30;;
39882;SDS011;55824;52.220;21.040;2022-09-09T00:58:27;6.35;;;3.80;;
39882;SDS011;55824;52.220;21.040;2022-09-09T01:00:57;6.40;;;4.30;;
39882;SDS011;55824;52.220;21.040;2022-09-09T01:11:05;5.32;;;3.50;;
39882;SDS011;55824;52.220;21.040;2022-09-09T01:13:33;5.53;;;3.42;;
39882;SDS011;55824;52.220;21.040;2022-09-09T01:16:01;6.43;;;3.22;;
39882;SDS011;55824;52.220;21.040;2022-09-09T01:18:34;6.07;;;3.65;;
39882;SDS011;55824;52.220;21.040;2022-09-09T01:21:09;7.05;;;3.83;;
39882;SDS011;55824;52.220;21.040;2022-09-09T01:26:28;6.15;;;3.97;;
39882;SDS011;55824;52.220;21.040;2022-09-09T01:28:55;6.82;;;4.03;;
39882;SDS011;55824;52.220;21.040;2022-09-09T01:31:29;6.45;;;3.60;;
39882;SDS011;55824;52.220;21.040;2022-09-09T01:33:57;7.18;;;3.72;;
39882;SDS011;55824;52.220;21.040;2022-09-09T01:38:48;6.38;;;3.50;;
39882;SDS011;55824;52.220;21.040;2022-09-09T01:41:15;5.13;;;3.38;;
39882;SDS011;55824;52.220;21.040;2022-09-09T01:43:41;5.93;;;3.80;;
39882;SDS011;55824;52.220;21.040;2022-09-09T01:46:07;6.85;;;3.78;;
39882;SDS011;55824;52.220;21.040;2022-09-09T01:48:33;7.57;;;3.80;;
39882;SDS011;55824;52.220;21.040;2022-09-09T01:50:59;5.90;;;3.55;;
39882;SDS011;55824;52.220;21.040;2022-09-09T01:53:25;6.30;;;3.25;;
39882;SDS011;55824;52.220;21.040;2022-09-09T02:01:41;6.88;;;3.95;;
39882;SDS011;55824;52.220;21.040;2022-09-09T02:03:38;6.38;;;3.65;;
39882;SDS011;55824;52.220;21.040;2022-09-09T02:06:10;5.55;;;3.35;;
39882;SDS011;55824;52.220;21.040;2022-09-09T02:08:47;5.20;;;3.65;;
39882;SDS011;55824;52.220;21.040;2022-09-09T02:11:17;4.78;;;3.25;;
39882;SDS011;55824;52.220;21.040;2022-09-09T02:13:45;6.03;;;3.63;;
39882;SDS011;55824;52.220;21.040;2022-09-09T02:21:22;6.78;;;4.13;;
39882;SDS011;55824;52.220;21.040;2022-09-09T02:23:48;6.30;;;3.72;;
39882;SDS011;55824;52.220;21.040;2022-09-09T02:26:17;6.32;;;3.75;;
39882;SDS011;55824;52.220;21.040;2022-09-09T02:28:46;6.68;;;4.50;;
39882;SDS011;55824;52.220;21.040;2022-09-09T02:31:14;6.35;;;4.03;;
39882;SDS011;55824;52.220;21.040;2022-09-09T02:33:42;5.88;;;3.78;;
39882;SDS011;55824;52.220;21.040;2022-09-09T02:36:10;5.30;;;3.20;;
39882;SDS011;55824;52.220;21.040;2022-09-09T02:38:40;6.15;;;4.22;;
39882;SDS011;55824;52.220;21.040;2022-09-09T02:41:08;7.63;;;3.72;;
39882;SDS011;55824;52.220;21.040;2022-09-09T02:43:35;5.78;;;3.63;;
39882;SDS011;55824;52.220;21.040;2022-09-09T02:48:34;5.47;;;3.65;;
39882;SDS011;55824;52.220;21.040;2022-09-09T02:53:31;6.15;;;3.55;;
39882;SDS011;55824;52.220;21.040;2022-09-09T02:58:58;6.80;;;3.88;;
39882;SDS011;55824;52.220;21.040;2022-09-09T03:01:24;6.22;;;3.92;;
39882;SDS011;55824;52.220;21.040;2022-09-09T03:03:50;6.63;;;4.25;;
39882;SDS011;55824;52.220;21.040;2022-09-09T03:06:16;5.95;;;4.10;;
39882;SDS011;55824;52.220;21.040;2022-09-09T03:08:42;5.95;;;3.83;;
39882;SDS011;55824;52.220;21.040;2022-09-09T03:11:08;5.70;;;3.55;;
39882;SDS011;55824;52.220;21.040;2022-09-09T03:13:34;6.00;;;3.72;;
39882;SDS011;55824;52.220;21.040;2022-09-09T03:16:00;7.15;;;4.20;;
39882;SDS011;55824;52.220;21.040;2022-09-09T03:18:26;8.32;;;4.47;;
39882;SDS011;55824;52.220;21.040;2022-09-09T03:20:53;6.07;;;3.92;;
39882;SDS011;55824;52.220;21.040;2022-09-09T03:23:19;6.68;;;3.70;;
39882;SDS011;55824;52.220;21.040;2022-09-09T03:25:47;5.65;;;3.92;;
39882;SDS011;55824;52.220;21.040;2022-09-09T03:28:13;6.57;;;4.10;;
39882;SDS011;55824;52.220;21.040;2022-09-09T03:30:40;5.75;;;3.63;;
39882;SDS011;55824;52.220;21.040;2022-09-09T03:33:06;5.72;;;3.40;;
39882;SDS011;55824;52.220;21.040;2022-09-09T03:35:32;6.13;;;3.88;;
39882;SDS011;55824;52.220;21.040;2022-09-09T03:37:58;6.88;;;4.18;;
39882;SDS011;55824;52.220;21.040;2022-09-09T03:40:25;5.70;;;3.85;;
39882;SDS011;55824;52.220;21.040;2022-09-09T03:42:51;7.50;;;4.40;;
39882;SDS011;55824;52.220;21.040;2022-09-09T03:45:18;6.93;;;4.13;;
39882;SDS011;55824;52.220;21.040;2022-09-09T03:47:44;6.95;;;3.95;;
39882;SDS011;55824;52.220;21.040;2022-09-09T03:50:10;6.13;;;3.60;;
39882;SDS011;55824;52.220;21.040;2022-09-09T03:52:36;7.50;;;4.10;;
39882;SDS011;55824;52.220;21.040;2022-09-09T03:55:03;5.55;;;3.67;;
39882;SDS011;55824;52.220;21.040;2022-09-09T03:57:29;6.07;;;4.10;;
39882;SDS011;55824;52.220;21.040;2022-09-09T03:59:55;6.05;;;3.75;;
39882;SDS011;55824;52.220;21.040;2022-09-09T04:02:22;7.07;;;3.97;;
39882;SDS011;55824;52.220;21.040;2022-09-09T04:04:48;6.45;;;4.25;;
39882;SDS011;55824;52.220;21.040;2022-09-09T04:07:14;5.97;;;3.92;;
39882;SDS011;55824;52.220;21.040;2022-09-09T04:09:40;4.68;;;3.67;;
39882;SDS011;55824;52.220;21.040;2022-09-09T04:12:06;6.03;;;3.63;;
39882;SDS011;55824;52.220;21.040;2022-09-09T04:14:32;5.80;;;3.97;;
39882;SDS011;55824;52.220;21.040;2022-09-09T04:16:58;5.47;;;3.67;;
39882;SDS011;55824;52.220;21.040;2022-09-09T04:19:25;5.18;;;3.70;;
39882;SDS011;55824;52.220;21.040;2022-09-09T04:21:51;7.28;;;4.43;;
39882;SDS011;55824;52.220;21.040;2022-09-09T04:24:17;6.25;;;4.18;;
39882;SDS011;55824;52.220;21.040;2022-09-09T04:26:43;5.90;;;3.70;;
39882;SDS011;55824;52.220;21.040;2022-09-09T04:29:10;5.35;;;3.63;;
39882;SDS011;55824;52.220;21.040;2022-09-09T04:31:36;5.32;;;3.53;;
39882;SDS011;55824;52.220;21.040;2022-09-09T04:34:06;5.93;;;4.05;;
39882;SDS011;55824;52.220;21.040;2022-09-09T04:36:32;5.63;;;3.53;;
39882;SDS011;55824;52.220;21.040;2022-09-09T04:38:59;6.05;;;3.95;;
39882;SDS011;55824;52.220;21.040;2022-09-09T04:41:26;7.28;;;4.20;;
39882;SDS011;55824;52.220;21.040;2022-09-09T04:43:52;6.30;;;3.67;;
39882;SDS011;55824;52.220;21.040;2022-09-09T04:46:19;6.00;;;3.92;;
39882;SDS011;55824;52.220;21.040;2022-09-09T04:48:45;5.60;;;3.70;;
39882;SDS011;55824;52.220;21.040;2022-09-09T04:51:12;6.72;;;4.03;;
39882;SDS011;55824;52.220;21.040;2022-09-09T04:53:39;6.75;;;3.40;;
39882;SDS011;55824;52.220;21.040;2022-09-09T04:56:14;5.70;;;3.92;;
39882;SDS011;55824;52.220;21.040;2022-09-09T04:58:41;5.57;;;3.50;;
39882;SDS011;55824;52.220;21.040;2022-09-09T05:03:37;5.30;;;3.65;;
39882;SDS011;55824;52.220;21.040;2022-09-09T05:06:10;5.75;;;3.78;;
39882;SDS011;55824;52.220;21.040;2022-09-09T05:08:37;4.75;;;3.33;;
39882;SDS011;55824;52.220;21.040;2022-09-09T05:11:03;4.65;;;3.33;;
39882;SDS011;55824;52.220;21.040;2022-09-09T05:13:30;5.45;;;3.65;;
39882;SDS011;55824;52.220;21.040;2022-09-09T05:15:56;4.88;;;3.58;;
39882;SDS011;55824;52.220;21.040;2022-09-09T05:18:23;5.00;;;3.35;;
39882;SDS011;55824;52.220;21.040;2022-09-09T05:20:49;5.53;;;3.58;;
39882;SDS011;55824;52.220;21.040;2022-09-09T05:23:16;6.05;;;3.75;;
39882;SDS011;55824;52.220;21.040;2022-09-09T05:25:42;5.75;;;4.03;;
39882;SDS011;55824;52.220;21.040;2022-09-09T05:28:08;5.40;;;3.78;;
39882;SDS011;55824;52.220;21.040;2022-09-09T05:30:36;5.13;;;3.38;;
39882;SDS011;55824;52.220;21.040;2022-09-09T05:33:02;5.13;;;3.75;;
39882;SDS011;55824;52.220;21.040;2022-09-09T05:35:28;4.57;;;3.38;;
39882;SDS011;55824;52.220;21.040;2022-09-09T05:37:58;5.22;;;3.17;;
39882;SDS011;55824;52.220;21.040;2022-09-09T05:40:25;4.45;;;3.30;;
39882;SDS011;55824;52.220;21.040;2022-09-09T05:42:51;4.82;;;3.33;;
39882;SDS011;55824;52.220;21.040;2022-09-09T05:45:18;5.88;;;3.75;;
39882;SDS011;55824;52.220;21.040;2022-09-09T05:47:44;4.68;;;3.50;;
39882;SDS011;55824;52.220;21.040;2022-09-09T05:50:10;5.75;;;3.70;;
39882;SDS011;55824;52.220;21.040;2022-09-09T05:52:37;5.50;;;3.50;;
39882;SDS011;55824;52.220;21.040;2022-09-09T05:55:03;5.20;;;3.38;;
39882;SDS011;55824;52.220;21.040;2022-09-09T05:57:30;5.85;;;3.40;;
39882;SDS011;55824;52.220;21.040;2022-09-09T05:59:56;6.40;;;3.70;;
39882;SDS011;55824;52.220;21.040;2022-09-09T06:02:21;4.30;;;2.78;;
39882;SDS011;55824;52.220;21.040;2022-09-09T06:04:47;4.97;;;3.33;;
39882;SDS011;55824;52.220;21.040;2022-09-09T06:07:13;4.45;;;3.08;;
39882;SDS011;55824;52.220;21.040;2022-09-09T06:09:39;3.95;;;2.95;;
39882;SDS011;55824;52.220;21.040;2022-09-09T06:12:06;4.38;;;3.20;;
39882;SDS011;55824;52.220;21.040;2022-09-09T06:14:32;5.40;;;3.30;;
39882;SDS011;55824;52.220;21.040;2022-09-09T06:16:58;4.03;;;3.03;;
39882;SDS011;55824;52.220;21.040;2022-09-09T06:19:24;5.80;;;3.97;;
39882;SDS011;55824;52.220;21.040;2022-09-09T06:21:51;5.43;;;3.33;;
39882;SDS011;55824;52.220;21.040;2022-09-09T06:24:17;4.97;;;3.38;;
39882;SDS011;55824;52.220;21.040;2022-09-09T06:26:44;4.82;;;3.30;;
39882;SDS011;55824;52.220;21.040;2022-09-09T06:29:11;5.45;;;3.33;;
39882;SDS011;55824;52.220;21.040;2022-09-09T06:31:37;4.70;;;3.10;;
39882;SDS011;55824;52.220;21.040;2022-09-09T06:34:07;4.50;;;3.15;;
39882;SDS011;55824;52.220;21.040;2022-09-09T06:36:34;4.07;;;2.95;;
39882;SDS011;55824;52.220;21.040;2022-09-09T06:39:02;4.82;;;2.88;;
39882;SDS011;55824;52.220;21.040;2022-09-09T06:41:29;4.43;;;2.90;;
39882;SDS011;55824;52.220;21.040;2022-09-09T06:43:55;4.50;;;3.00;;
39882;SDS011;55824;52.220;21.040;2022-09-09T06:46:22;4.03;;;2.65;;
39882;SDS011;55824;52.220;21.040;2022-09-09T06:48:48;4.90;;;3.08;;
39882;SDS011;55824;52.220;21.040;2022-09-09T06:51:18;4.93;;;3.08;;
39882;SDS011;55824;52.220;21.040;2022-09-09T06:53:46;4.82;;;3.10;;
39882;SDS011;55824;52.220;21.040;2022-09-09T06:56:20;5.85;;;3.15;;
39882;SDS011;55824;52.220;21.040;2022-09-09T06:58:48;4.55;;;2.53;;
39882;SDS011;55824;52.220;21.040;2022-09-09T07:01:15;4.00;;;2.67;;
39882;SDS011;55824;52.220;21.040;2022-09-09T07:03:44;4.78;;;3.00;;
39882;SDS011;55824;52.220;21.040;2022-09-09T07:06:14;5.00;;;3.47;;
39882;SDS011;55824;52.220;21.040;2022-09-09T07:08:42;3.85;;;2.70;;
39882;SDS011;55824;52.220;21.040;2022-09-09T07:11:08;4.15;;;2.65;;
39882;SDS011;55824;52.220;21.040;2022-09-09T07:13:36;5.45;;;3.22;;
39882;SDS011;55824;52.220;21.040;2022-09-09T07:16:06;4.15;;;2.97;;
39882;SDS011;55824;52.220;21.040;2022-09-09T07:18:32;6.35;;;2.90;;
39882;SDS011;55824;52.220;21.040;2022-09-09T07:20:59;4.85;;;2.75;;
39882;SDS011;55824;52.220;21.040;2022-09-09T07:23:27;4.07;;;2.88;;
39882;SDS011;55824;52.220;21.040;2022-09-09T07:25:53;5.10;;;3.08;;
39882;SDS011;55824;52.220;21.040;2022-09-09T07:28:19;4.22;;;2.90;;
39882;SDS011;55824;52.220;21.040;2022-09-09T07:31:03;4.70;;;3.28;;
39882;SDS011;55824;52.220;21.040;2022-09-09T07:33:30;5.13;;;3.22;;
39882;SDS011;55824;52.220;21.040;2022-09-09T07:36:16;5.97;;;3.70;;
39882;SDS011;55824;52.220;21.040;2022-09-09T07:38:45;4.88;;;2.92;;
39882;SDS011;55824;52.220;21.040;2022-09-09T07:43:41;13.27;;;3.22;;
39882;SDS011;55824;52.220;21.040;2022-09-09T07:48:34;7.80;;;3.17;;
39882;SDS011;55824;52.220;21.040;2022-09-09T07:51:19;4.97;;;2.65;;
39882;SDS011;55824;52.220;21.040;2022-09-09T07:53:47;6.38;;;2.70;;
39882;SDS011;55824;52.220;21.040;2022-09-09T07:56:15;4.82;;;3.00;;
39882;SDS011;55824;52.220;21.040;2022-09-09T07:58:46;4.20;;;2.72;;
39882;SDS011;55824;52.220;21.040;2022-09-09T08:01:17;8.13;;;3.30;;
39882;SDS011;55824;52.220;21.040;2022-09-09T08:03:46;3.97;;;2.60;;
39882;SDS011;55824;52.220;21.040;2022-09-09T08:06:13;6.60;;;3.10;;
39882;SDS011;55824;52.220;21.040;2022-09-09T08:08:40;6.88;;;3.03;;
39882;SDS011;55824;52.220;21.040;2022-09-09T08:11:09;4.13;;;2.45;;
39882;SDS011;55824;52.220;21.040;2022-09-09T08:13:36;5.18;;;3.00;;
39882;SDS011;55824;52.220;21.040;2022-09-09T08:16:03;5.68;;;3.00;;
39882;SDS011;55824;52.220;21.040;2022-09-09T08:18:29;7.50;;;2.80;;
39882;SDS011;55824;52.220;21.040;2022-09-09T08:20:55;8.73;;;3.08;;
39882;SDS011;55824;52.220;21.040;2022-09-09T08:23:21;6.30;;;2.83;;
39882;SDS011;55824;52.220;21.040;2022-09-09T08:25:47;5.15;;;2.67;;
39882;SDS011;55824;52.220;21.040;2022-09-09T08:28:15;3.85;;;2.38;;
39882;SDS011;55824;52.220;21.040;2022-09-09T08:30:41;4.53;;;2.95;;
39882;SDS011;55824;52.220;21.040;2022-09-09T08:33:08;4.65;;;3.13;;
39882;SDS011;55824;52.220;21.040;2022-09-09T08:35:35;5.07;;;2.70;;
39882;SDS011;55824;52.220;21.040;2022-09-09T08:38:01;4.90;;;2.72;;
39882;SDS011;55824;52.220;21.040;2022-09-09T08:40:28;6.05;;;3.05;;
39882;SDS011;55824;52.220;21.040;2022-09-09T08:42:55;4.72;;;2.88;;
39882;SDS011;55824;52.220;21.040;2022-09-09T08:45:28;5.88;;;3.00;;
39882;SDS011;55824;52.220;21.040;2022-09-09T08:50:38;4.72;;;2.90;;
39882;SDS011;55824;52.220;21.040;2022-09-09T08:55:45;5.75;;;3.03;;
39882;SDS011;55824;52.220;21.040;2022-09-09T08:58:19;5.68;;;3.10;;
39882;SDS011;55824;52.220;21.040;2022-09-09T09:00:50;3.92;;;2.65;;
39882;SDS011;55824;52.220;21.040;2022-09-09T09:05:56;4.53;;;2.95;;
39882;SDS011;55824;52.220;21.040;2022-09-09T09:08:33;5.13;;;2.95;;
39882;SDS011;55824;52.220;21.040;2022-09-09T09:10:59;4.10;;;3.00;;
39882;SDS011;55824;52.220;21.040;2022-09-09T09:13:34;6.15;;;3.25;;
39882;SDS011;55824;52.220;21.040;2022-09-09T09:16:07;4.45;;;3.22;;
39882;SDS011;55824;52.220;21.040;2022-09-09T09:18:36;4.03;;;2.75;;
39882;SDS011;55824;52.220;21.040;2022-09-09T09:21:23;4.60;;;3.05;;
39882;SDS011;55824;52.220;21.040;2022-09-09T09:23:54;4.68;;;2.80;;
39882;SDS011;55824;52.220;21.040;2022-09-09T09:26:22;5.28;;;3.45;;
39882;SDS011;55824;52.220;21.040;2022-09-09T09:28:51;4.68;;;3.20;;
39882;SDS011;55824;52.220;21.040;2022-09-09T09:31:20;5.70;;;3.35;;
39882;SDS011;55824;52.220;21.040;2022-09-09T09:33:48;5.20;;;3.22;;
39882;SDS011;55824;52.220;21.040;2022-09-09T09:36:14;6.30;;;3.20;;
39882;SDS011;55824;52.220;21.040;2022-09-09T09:38:51;6.97;;;3.17;;
39882;SDS011;55824;52.220;21.040;2022-09-09T09:41:17;4.35;;;2.67;;
39882;SDS011;55824;52.220;21.040;2022-09-09T09:43:54;5.32;;;3.17;;
39882;SDS011;55824;52.220;21.040;2022-09-09T09:46:21;4.60;;;3.20;;
39882;SDS011;55824;52.220;21.040;2022-09-09T09:49:04;5.45;;;3.38;;
39882;SDS011;55824;52.220;21.040;2022-09-09T09:56:38;7.10;;;3.30;;
39882;SDS011;55824;52.220;21.040;2022-09-09T09:59:05;9.63;;;3.65;;
39882;SDS011;55824;52.220;21.040;2022-09-09T10:01:32;5.43;;;3.30;;
39882;SDS011;55824;52.220;21.040;2022-09-09T10:03:59;7.22;;;3.60;;
39882;SDS011;55824;52.220;21.040;2022-09-09T10:06:33;4.50;;;3.28;;
39882;SDS011;55824;52.220;21.040;2022-09-09T10:08:59;5.43;;;3.30;;
39882;SDS011;55824;52.220;21.040;2022-09-09T10:18:55;5.70;;;3.35;;
39882;SDS011;55824;52.220;21.040;2022-09-09T10:26:35;4.63;;;3.38;;
39882;SDS011;55824;52.220;21.040;2022-09-09T10:29:08;6.47;;;3.17;;
39882;SDS011;55824;52.220;21.040;2022-09-09T10:31:49;4.65;;;3.00;;
39882;SDS011;55824;52.220;21.040;2022-09-09T10:36:47;5.72;;;3.83;;
39882;SDS011;55824;52.220;21.040;2022-09-09T10:52:15;9.77;;;4.03;;
39882;SDS011;55824;52.220;21.040;2022-09-09T10:55:26;6.68;;;4.05;;
39882;SDS011;55824;52.220;21.040;2022-09-09T11:00:02;7.15;;;3.55;;
39882;SDS011;55824;52.220;21.040;2022-09-09T11:02:30;8.07;;;4.13;;
39882;SDS011;55824;52.220;21.040;2022-09-09T11:07:47;13.20;;;7.82;;
39882;SDS011;55824;52.220;21.040;2022-09-09T11:10:18;16.30;;;9.27;;
39882;SDS011;55824;52.220;21.040;2022-09-09T11:12:46;14.48;;;7.80;;
39882;SDS011;55824;52.220;21.040;2022-09-09T11:15:17;31.25;;;12.55;;
39882;SDS011;55824;52.220;21.040;2022-09-09T11:20:12;28.98;;;10.75;;
39882;SDS011;55824;52.220;21.040;2022-09-09T11:30:18;35.05;;;16.13;;
39882;SDS011;55824;52.220;21.040;2022-09-09T11:40:24;18.63;;;10.93;;
39882;SDS011;55824;52.220;21.040;2022-09-09T11:43:00;17.67;;;10.10;;
39882;SDS011;55824;52.220;21.040;2022-09-09T11:45:27;15.15;;;8.70;;
39882;SDS011;55824;52.220;21.040;2022-09-09T11:47:57;18.33;;;9.07;;
39882;SDS011;55824;52.220;21.040;2022-09-09T11:52:50;12.57;;;7.60;;
39882;SDS011;55824;52.220;21.040;2022-09-09T11:55:32;11.55;;;6.82;;
39882;SDS011;55824;52.220;21.040;2022-09-09T11:58:00;16.58;;;7.88;;
39882;SDS011;55824;52.220;21.040;2022-09-09T12:00:34;14.88;;;7.60;;
39882;SDS011;55824;52.220;21.040;2022-09-09T12:03:02;14.57;;;7.45;;
39882;SDS011;55824;52.220;21.040;2022-09-09T12:05:40;13.82;;;7.82;;
39882;SDS011;55824;52.220;21.040;2022-09-09T12:08:11;13.40;;;8.15;;
39882;SDS011;55824;52.220;21.040;2022-09-09T12:10:41;13.57;;;7.63;;
39882;SDS011;55824;52.220;21.040;2022-09-09T12:13:08;13.80;;;7.30;;
39882;SDS011;55824;52.220;21.040;2022-09-09T12:15:34;12.35;;;6.95;;
39882;SDS011;55824;52.220;21.040;2022-09-09T12:18:00;11.50;;;6.93;;
39882;SDS011;55824;52.220;21.040;2022-09-09T12:25:48;11.38;;;6.82;;
39882;SDS011;55824;52.220;21.040;2022-09-09T12:33:42;14.57;;;7.63;;
39882;SDS011;55824;52.220;21.040;2022-09-09T12:36:31;12.40;;;7.47;;
39882;SDS011;55824;52.220;21.040;2022-09-09T12:38:57;11.52;;;7.05;;
39882;SDS011;55824;52.220;21.040;2022-09-09T12:41:26;14.45;;;8.18;;
39882;SDS011;55824;52.220;21.040;2022-09-09T12:44:03;11.88;;;7.82;;
39882;SDS011;55824;52.220;21.040;2022-09-09T12:46:35;11.23;;;6.85;;
39882;SDS011;55824;52.220;21.040;2022-09-09T12:49:02;12.65;;;7.25;;
39882;SDS011;55824;52.220;21.040;2022-09-09T12:51:30;15.13;;;7.70;;
39882;SDS011;55824;52.220;21.040;2022-09-09T12:53:57;12.98;;;7.85;;
39882;SDS011;55824;52.220;21.040;2022-09-09T12:56:24;12.43;;;8.07;;
39882;SDS011;55824;52.220;21.040;2022-09-09T12:58:51;12.48;;;8.13;;
39882;SDS011;55824;52.220;21.040;2022-09-09T13:01:28;11.38;;;7.25;;
39882;SDS011;55824;52.220;21.040;2022-09-09T13:03:55;12.98;;;7.45;;
39882;SDS011;55824;52.220;21.040;2022-09-09T13:06:22;11.48;;;7.50;;
39882;SDS011;55824;52.220;21.040;2022-09-09T13:08:52;12.73;;;7.93;;
39882;SDS011;55824;52.220;21.040;2022-09-09T13:11:41;13.85;;;7.35;;
39882;SDS011;55824;52.220;21.040;2022-09-09T13:14:12;10.93;;;7.43;;
39882;SDS011;55824;52.220;21.040;2022-09-09T13:16:54;11.85;;;7.70;;
39882;SDS011;55824;52.220;21.040;2022-09-09T13:19:20;11.52;;;7.30;;
39882;SDS011;55824;52.220;21.040;2022-09-09T13:21:46;11.05;;;7.20;;
39882;SDS011;55824;52.220;21.040;2022-09-09T13:24:32;12.32;;;7.32;;
39882;SDS011;55824;52.220;21.040;2022-09-09T13:27:00;12.07;;;8.02;;
39882;SDS011;55824;52.220;21.040;2022-09-09T13:29:27;12.73;;;7.80;;
39882;SDS011;55824;52.220;21.040;2022-09-09T13:31:53;10.68;;;7.13;;
39882;SDS011;55824;52.220;21.040;2022-09-09T13:34:26;12.63;;;7.43;;
39882;SDS011;55824;52.220;21.040;2022-09-09T13:36:52;12.40;;;7.07;;
39882;SDS011;55824;52.220;21.040;2022-09-09T13:39:20;10.85;;;6.95;;
39882;SDS011;55824;52.220;21.040;2022-09-09T13:41:46;13.00;;;7.50;;
39882;SDS011;55824;52.220;21.040;2022-09-09T13:44:25;11.75;;;7.60;;
39882;SDS011;55824;52.220;21.040;2022-09-09T13:47:26;12.10;;;7.38;;
39882;SDS011;55824;52.220;21.040;2022-09-09T13:49:45;11.90;;;7.50;;
39882;SDS011;55824;52.220;21.040;2022-09-09T13:52:12;14.93;;;8.07;;
39882;SDS011;55824;52.220;21.040;2022-09-09T13:54:39;11.27;;;7.25;;
39882;SDS011;55824;52.220;21.040;2022-09-09T13:57:05;11.25;;;6.63;;
39882;SDS011;55824;52.220;21.040;2022-09-09T13:59:32;11.55;;;7.20;;
39882;SDS011;55824;52.220;21.040;2022-09-09T14:01:58;10.60;;;6.95;;
39882;SDS011;55824;52.220;21.040;2022-09-09T14:04:24;11.02;;;7.07;;
39882;SDS011;55824;52.220;21.040;2022-09-09T14:06:50;11.77;;;7.45;;
39882;SDS011;55824;52.220;21.040;2022-09-09T14:09:16;9.73;;;6.68;;
39882;SDS011;55824;52.220;21.040;2022-09-09T14:11:43;11.18;;;6.97;;
39882;SDS011;55824;52.220;21.040;2022-09-09T14:14:10;12.68;;;7.45;;
39882;SDS011;55824;52.220;21.040;2022-09-09T14:16:36;10.35;;;7.05;;
39882;SDS011;55824;52.220;21.040;2022-09-09T14:19:02;9.95;;;7.00;;
39882;SDS011;55824;52.220;21.040;2022-09-09T14:21:29;10.75;;;7.90;;
39882;SDS011;55824;52.220;21.040;2022-09-09T14:23:55;12.43;;;7.57;;
39882;SDS011;55824;52.220;21.040;2022-09-09T14:26:23;12.90;;;8.23;;
39882;SDS011;55824;52.220;21.040;2022-09-09T14:28:49;12.73;;;7.82;;
39882;SDS011;55824;52.220;21.040;2022-09-09T14:31:16;10.63;;;7.38;;
39882;SDS011;55824;52.220;21.040;2022-09-09T14:33:43;9.75;;;7.13;;
39882;SDS011;55824;52.220;21.040;2022-09-09T14:36:09;13.50;;;7.53;;
39882;SDS011;55824;52.220;21.040;2022-09-09T14:38:36;11.80;;;7.68;;
39882;SDS011;55824;52.220;21.040;2022-09-09T14:41:07;11.18;;;7.53;;
39882;SDS011;55824;52.220;21.040;2022-09-09T14:43:34;11.00;;;7.40;;
39882;SDS011;55824;52.220;21.040;2022-09-09T14:46:07;11.52;;;7.93;;
39882;SDS011;55824;52.220;21.040;2022-09-09T14:48:33;11.05;;;7.25;;
39882;SDS011;55824;52.220;21.040;2022-09-09T14:51:16;10.32;;;7.30;;
39882;SDS011;55824;52.220;21.040;2022-09-09T14:53:43;12.82;;;7.57;;
39882;SDS011;55824;52.220;21.040;2022-09-09T14:56:13;11.60;;;6.55;;
39882;SDS011;55824;52.220;21.040;2022-09-09T14:58:39;12.00;;;7.53;;
39882;SDS011;55824;52.220;21.040;2022-09-09T15:01:06;11.57;;;7.05;;
39882;SDS011;55824;52.220;21.040;2022-09-09T15:03:32;12.57;;;7.20;;
39882;SDS011;55824;52.220;21.040;2022-09-09T15:06:04;11.13;;;7.82;;
39882;SDS011;55824;52.220;21.040;2022-09-09T15:08:30;10.73;;;7.00;;
39882;SDS011;55824;52.220;21.040;2022-09-09T15:11:00;11.02;;;7.50;;
39882;SDS011;55824;52.220;21.040;2022-09-09T15:15:52;9.65;;;6.97;;
39882;SDS011;55824;52.220;21.040;2022-09-09T15:18:19;10.50;;;6.72;;
39882;SDS011;55824;52.220;21.040;2022-09-09T15:20:45;10.88;;;7.00;;
39882;SDS011;55824;52.220;21.040;2022-09-09T15:23:11;11.07;;;7.60;;
39882;SDS011;55824;52.220;21.040;2022-09-09T15:25:37;11.23;;;7.72;;
39882;SDS011;55824;52.220;21.040;2022-09-09T15:28:03;9.88;;;7.00;;
39882;SDS011;55824;52.220;21.040;2022-09-09T15:30:29;11.27;;;6.70;;
39882;SDS011;55824;52.220;21.040;2022-09-09T15:32:55;10.02;;;6.97;;
39882;SDS011;55824;52.220;21.040;2022-09-09T15:35:21;10.15;;;7.07;;
39882;SDS011;55824;52.220;21.040;2022-09-09T15:37:47;10.30;;;7.03;;
39882;SDS011;55824;52.220;21.040;2022-09-09T15:40:13;11.63;;;8.05;;
39882;SDS011;55824;52.220;21.040;2022-09-09T15:42:39;11.20;;;7.32;;
39882;SDS011;55824;52.220;21.040;2022-09-09T15:45:05;11.55;;;7.95;;
39882;SDS011;55824;52.220;21.040;2022-09-09T15:47:31;12.38;;;7.18;;
39882;SDS011;55824;52.220;21.040;2022-09-09T15:49:58;11.63;;;7.45;;
39882;SDS011;55824;52.220;21.040;2022-09-09T15:52:24;18.70;;;9.90;;
39882;SDS011;55824;52.220;21.040;2022-09-09T15:54:50;19.42;;;10.10;;
39882;SDS011;55824;52.220;21.040;2022-09-09T15:57:16;20.30;;;10.40;;
39882;SDS011;55824;52.220;21.040;2022-09-09T15:59:42;18.95;;;10.50;;
39882;SDS011;55824;52.220;21.040;2022-09-09T16:02:10;18.92;;;10.88;;
39882;SDS011;55824;52.220;21.040;2022-09-09T16:04:36;20.48;;;10.88;;
39882;SDS011;55824;52.220;21.040;2022-09-09T16:07:03;19.75;;;11.63;;
39882;SDS011;55824;52.220;21.040;2022-09-09T16:09:29;19.17;;;11.70;;
39882;SDS011;55824;52.220;21.040;2022-09-09T16:11:56;22.27;;;12.77;;
39882;SDS011;55824;52.220;21.040;2022-09-09T16:14:23;19.70;;;11.82;;
39882;SDS011;55824;52.220;21.040;2022-09-09T16:16:50;22.02;;;10.57;;
39882;SDS011;55824;52.220;21.040;2022-09-09T16:19:17;22.52;;;11.45;;
39882;SDS011;55824;52.220;21.040;2022-09-09T16:21:47;20.73;;;11.45;;
39882;SDS011;55824;52.220;21.040;2022-09-09T16:26:40;19.30;;;11.63;;
39882;SDS011;55824;52.220;21.040;2022-09-09T16:29:09;20.88;;;10.90;;
39882;SDS011;55824;52.220;21.040;2022-09-09T16:31:35;16.08;;;10.68;;
39882;SDS011;55824;52.220;21.040;2022-09-09T16:34:01;16.40;;;10.57;;
39882;SDS011;55824;52.220;21.040;2022-09-09T16:36:31;16.13;;;10.73;;
39882;SDS011;55824;52.220;21.040;2022-09-09T16:39:00;20.00;;;10.60;;
39882;SDS011;55824;52.220;21.040;2022-09-09T16:41:26;20.15;;;10.43;;
39882;SDS011;55824;52.220;21.040;2022-09-09T16:43:53;16.70;;;10.27;;
39882;SDS011;55824;52.220;21.040;2022-09-09T16:46:20;15.75;;;10.13;;
39882;SDS011;55824;52.220;21.040;2022-09-09T16:48:46;19.27;;;10.27;;
39882;SDS011;55824;52.220;21.040;2022-09-09T16:51:16;17.33;;;10.23;;
39882;SDS011;55824;52.220;21.040;2022-09-09T16:53:43;13.98;;;9.30;;
39882;SDS011;55824;52.220;21.040;2022-09-09T16:56:19;16.73;;;10.43;;
39882;SDS011;55824;52.220;21.040;2022-09-09T16:58:49;19.38;;;10.70;;
39882;SDS011;55824;52.220;21.040;2022-09-09T17:03:41;13.68;;;8.77;;